createdAt,value
2023-01-08T00:00:17.576Z,97792.75
2023-01-08T00:02:45.059Z,97786.47
2023-01-08T00:05:12.285Z,97795.47
2023-01-08T00:07:40.377Z,97777.28
2023-01-08T00:10:08.144Z,97777.97
2023-01-08T00:12:35.618Z,97781.34
2023-01-08T00:15:02.382Z,97784.47
2023-01-08T00:17:29.639Z,97784.59
2023-01-08T00:19:56.944Z,97787.25
2023-01-08T00:22:24.426Z,97791.38
2023-01-08T00:24:53.370Z,97775.63
2023-01-08T00:27:20.591Z,97782.38
2023-01-08T00:29:47.777Z,97795.69
2023-01-08T00:32:15.626Z,97786.47
2023-01-08T00:34:42.785Z,97797.25
2023-01-08T00:37:10.173Z,97795.16
2023-01-08T00:39:37.615Z,97795.84
2023-01-08T00:42:06.759Z,97799.19
2023-01-08T00:44:33.912Z,97798.34
2023-01-08T00:47:01.515Z,97791.44
2023-01-08T00:49:29.023Z,97793.75
2023-01-08T00:51:56.763Z,97789.47
2023-01-08T00:54:24.087Z,97781.41
2023-01-08T00:56:51.280Z,97783.38
2023-01-08T00:59:20.503Z,97780.16
2023-01-08T01:01:48.692Z,97785.09
2023-01-08T01:04:16.274Z,97780.41
2023-01-08T01:06:43.541Z,97777.91
2023-01-08T01:09:11.403Z,97783.72
2023-01-08T01:11:38.757Z,97776.91
2023-01-08T01:14:06.002Z,97768.16
2023-01-08T01:16:35.068Z,97761.34
2023-01-08T01:19:02.587Z,97747.97
2023-01-08T01:21:31.983Z,97760.88
2023-01-08T01:24:01.142Z,97758.38
2023-01-08T01:26:28.341Z,97748.78
2023-01-08T01:28:57.611Z,97756.19
2023-01-08T01:31:27.152Z,97735.88
2023-01-08T01:33:55.895Z,97756.47
2023-01-08T01:36:24.420Z,97765.22
2023-01-08T01:38:53.533Z,97749.88
2023-01-08T01:41:26.404Z,97755.97
2023-01-08T01:43:55.124Z,97748.16
2023-01-08T01:46:34.680Z,97741.78
2023-01-08T01:49:09.053Z,97743.28
2023-01-08T01:51:37.403Z,97735.91
2023-01-08T01:54:07.835Z,97743.53
2023-01-08T01:56:35.462Z,97747.06
2023-01-08T01:59:03.307Z,97750.34
2023-01-08T02:01:32.163Z,97757.19
2023-01-08T02:03:59.780Z,97759.66
2023-01-08T02:06:37.134Z,97768.75
2023-01-08T02:09:13.506Z,97765.50
2023-01-08T02:11:47.495Z,97766.03
2023-01-08T02:14:23.867Z,97776.44
2023-01-08T02:16:56.237Z,97776.41
2023-01-08T02:19:37.863Z,97787.88
2023-01-08T02:22:20.200Z,97784.66
2023-01-08T02:24:55.739Z,97787.38
2023-01-08T02:27:28.079Z,97786.06
2023-01-08T02:29:57.269Z,97791.25
2023-01-08T02:32:27.598Z,97790.88
2023-01-08T02:34:54.564Z,97792.31
2023-01-08T02:37:22.492Z,97783.81
2023-01-08T02:40:02.118Z,97791.22
2023-01-08T02:42:39.720Z,97793.97
2023-01-08T02:45:18.894Z,97785.47
2023-01-08T02:47:52.143Z,97794.50
2023-01-08T02:50:24.687Z,97789.56
2023-01-08T02:52:58.814Z,97790.06
2023-01-08T02:55:28.573Z,97784.66
2023-01-08T02:57:58.879Z,97780.25
2023-01-08T03:00:27.935Z,97785.44
2023-01-08T03:03:04.160Z,97790.38
2023-01-08T03:05:31.875Z,97792.81
2023-01-08T03:07:59.230Z,97801.66
2023-01-08T03:10:30.699Z,97795.03
2023-01-08T03:13:04.672Z,97780.50
2023-01-08T03:15:37.900Z,97773.41
2023-01-08T03:18:09.712Z,97764.41
2023-01-08T03:20:39.086Z,97770.41
2023-01-08T03:23:09.917Z,97758.94
2023-01-08T03:25:41.745Z,97773.41
2023-01-08T03:28:15.287Z,97755.31
2023-01-08T03:30:44.637Z,97766.81
2023-01-08T03:33:14.053Z,97763.25
2023-01-08T03:35:44.089Z,97762.19
2023-01-08T03:38:16.186Z,97761.88
2023-01-08T03:40:48.098Z,97757.75
2023-01-08T03:43:16.493Z,97753.63
2023-01-08T03:45:51.648Z,97753.81
2023-01-08T03:48:21.126Z,97762.72
2023-01-08T03:50:48.770Z,97758.56
2023-01-08T03:53:16.223Z,97760.50
2023-01-08T03:55:43.808Z,97749.13
2023-01-08T03:58:11.239Z,97743.69
2023-01-08T04:00:40.034Z,97739.41
2023-01-08T04:03:07.715Z,97742.03
2023-01-08T04:05:34.979Z,97735.81
2023-01-08T04:08:02.434Z,97739.59
2023-01-08T04:10:29.881Z,97741.88
2023-01-08T04:12:57.087Z,97742.41
2023-01-08T04:15:24.347Z,97751.38
2023-01-08T04:17:53.826Z,97747.84
2023-01-08T04:20:20.651Z,97757.06
2023-01-08T04:22:47.762Z,97766.44
2023-01-08T04:25:15.644Z,97762.94
2023-01-08T04:27:42.825Z,97760.09
2023-01-08T04:30:11.474Z,97764.53
2023-01-08T04:32:38.934Z,97766.69
2023-01-08T04:35:08.600Z,97759.56
2023-01-08T04:37:35.907Z,97757.50
2023-01-08T04:40:03.443Z,97767.13
2023-01-08T04:42:30.925Z,97768.13
2023-01-08T04:44:58.383Z,97764.31
2023-01-08T04:47:25.883Z,97773.81
2023-01-08T04:49:53.383Z,97777.31
2023-01-08T04:52:22.248Z,97775.00
2023-01-08T04:54:49.667Z,97777.53
2023-01-08T04:57:16.456Z,97779.63
2023-01-08T04:59:43.930Z,97781.00
2023-01-08T05:02:11.563Z,97774.19
2023-01-08T05:04:38.506Z,97791.25
2023-01-08T05:07:05.566Z,97784.03
2023-01-08T05:09:34.384Z,97798.41
2023-01-08T05:12:01.602Z,97811.53
2023-01-08T05:14:28.862Z,97808.88
2023-01-08T05:16:56.516Z,97783.53
2023-01-08T05:19:23.763Z,97796.28
2023-01-08T05:21:51.012Z,97793.97
2023-01-08T05:24:18.699Z,97798.22
2023-01-08T05:26:47.392Z,97799.19
2023-01-08T05:29:14.583Z,97799.78
2023-01-08T05:31:42.493Z,97787.81
2023-01-08T05:34:09.799Z,97790.91
2023-01-08T05:36:37.032Z,97788.91
2023-01-08T05:39:04.772Z,97796.88
2023-01-08T05:41:32.066Z,97782.72
2023-01-08T05:44:01.034Z,97787.16
2023-01-08T05:46:28.055Z,97780.03
2023-01-08T05:48:55.348Z,97779.38
2023-01-08T05:51:22.541Z,97767.94
2023-01-08T05:53:50.027Z,97770.19
2023-01-08T05:56:17.522Z,97760.34
2023-01-08T05:58:44.913Z,97762.00
2023-01-08T06:01:15.773Z,97763.22
2023-01-08T06:03:43.261Z,97754.56
2023-01-08T06:06:11.698Z,97749.53
2023-01-08T06:08:39.595Z,97742.44
2023-01-08T06:11:08.446Z,97750.53
2023-01-08T06:13:36.911Z,97758.97
2023-01-08T06:16:04.758Z,97749.59
2023-01-08T06:18:33.672Z,97757.53
2023-01-08T06:21:02.399Z,97751.84
2023-01-08T06:23:29.785Z,97755.38
2023-01-08T06:25:59.999Z,97761.75
2023-01-08T06:28:27.729Z,97756.13
2023-01-08T06:30:57.456Z,97759.03
2023-01-08T06:33:24.891Z,97768.50
2023-01-08T06:35:53.740Z,97773.69
2023-01-08T06:38:21.531Z,97774.09
2023-01-08T06:40:49.065Z,97762.97
2023-01-08T06:43:15.836Z,97765.16
2023-01-08T06:45:43.311Z,97774.34
2023-01-08T06:48:10.456Z,97768.38
2023-01-08T06:50:38.028Z,97770.72
2023-01-08T06:53:07.001Z,97763.25
2023-01-08T06:55:34.643Z,97768.19
2023-01-08T06:58:01.864Z,97775.34
2023-01-08T07:00:29.194Z,97763.47
2023-01-08T07:02:56.878Z,97763.63
2023-01-08T07:05:24.662Z,97761.41
2023-01-08T07:07:52.323Z,97754.44
2023-01-08T07:10:21.038Z,97763.78
2023-01-08T07:12:48.266Z,97757.16
2023-01-08T07:15:16.551Z,97741.53
2023-01-08T07:17:44.089Z,97742.16
2023-01-08T07:20:11.767Z,97724.09
2023-01-08T07:22:39.380Z,97726.47
2023-01-08T07:25:07.965Z,97716.78
2023-01-08T07:27:36.841Z,97710.63
2023-01-08T07:30:05.050Z,97689.38
2023-01-08T07:32:32.243Z,97685.63
2023-01-08T07:34:59.005Z,97679.41
2023-01-08T07:37:26.912Z,97679.72
2023-01-08T07:39:53.668Z,97669.91
2023-01-08T07:42:20.995Z,97679.50
2023-01-08T07:44:50.135Z,97670.34
2023-01-08T07:47:17.481Z,97655.81
2023-01-08T07:49:45.024Z,97651.47
2023-01-08T07:52:12.267Z,97646.69
2023-01-08T07:54:39.634Z,97647.50
2023-01-08T07:57:06.499Z,97648.44
2023-01-08T07:59:33.977Z,97664.03
2023-01-08T08:02:02.236Z,97666.25
2023-01-08T08:04:29.810Z,97667.94
2023-01-08T08:06:57.508Z,97669.66
2023-01-08T08:09:24.914Z,97653.13
2023-01-08T08:11:52.192Z,97643.22
2023-01-08T08:14:19.937Z,97650.53
2023-01-08T08:16:47.235Z,97651.44
2023-01-08T08:19:15.905Z,97646.06
2023-01-08T08:21:43.228Z,97648.06
2023-01-08T08:24:10.701Z,97634.78
2023-01-08T08:26:37.873Z,97642.81
2023-01-08T08:29:06.341Z,97644.41
2023-01-08T08:31:33.507Z,97640.16
2023-01-08T08:34:00.771Z,97642.94
2023-01-08T08:36:32.749Z,97624.53
2023-01-08T08:38:59.947Z,97632.31
2023-01-08T08:41:27.342Z,97651.69
2023-01-08T08:43:55.214Z,97635.84
2023-01-08T08:46:22.711Z,97644.88
2023-01-08T08:48:50.837Z,97633.66
2023-01-08T08:51:18.180Z,97627.72
2023-01-08T08:53:46.932Z,97617.97
2023-01-08T08:56:14.141Z,97604.66
2023-01-08T08:58:41.550Z,97601.63
2023-01-08T09:01:09.224Z,97600.22
2023-01-08T09:03:36.636Z,97598.44
2023-01-08T09:06:04.520Z,97593.75
2023-01-08T09:08:31.256Z,97593.72
2023-01-08T09:11:02.251Z,97594.94
2023-01-08T09:13:29.702Z,97579.97
2023-01-08T09:15:58.669Z,97568.31
2023-01-08T09:18:25.987Z,97568.22
2023-01-08T09:20:53.453Z,97566.25
2023-01-08T09:23:20.835Z,97561.75
2023-01-08T09:25:47.814Z,97557.34
2023-01-08T09:28:16.629Z,97549.50
2023-01-08T09:30:43.817Z,97546.09
2023-01-08T09:33:11.282Z,97552.38
2023-01-08T09:35:38.824Z,97544.19
2023-01-08T09:38:06.218Z,97544.94
2023-01-08T09:40:37.868Z,97546.81
2023-01-08T09:43:05.449Z,97546.47
2023-01-08T09:45:37.396Z,97546.69
2023-01-08T09:48:07.929Z,97528.59
2023-01-08T09:50:35.468Z,97519.31
2023-01-08T09:53:02.964Z,97521.97
2023-01-08T09:55:34.388Z,97536.41
2023-01-08T09:58:03.423Z,97530.06
2023-01-08T10:00:34.678Z,97545.75
2023-01-08T10:03:02.827Z,97537.50
2023-01-08T10:05:30.881Z,97551.00
2023-01-08T10:07:58.297Z,97533.69
2023-01-08T10:10:29.589Z,97527.03
2023-01-08T10:12:57.317Z,97523.38
2023-01-08T10:15:25.397Z,97511.09
2023-01-08T10:18:02.844Z,97499.50
2023-01-08T10:20:31.943Z,97508.66
2023-01-08T10:23:10.506Z,97505.94
2023-01-08T10:25:50.082Z,97483.78
2023-01-08T10:28:21.027Z,97492.78
2023-01-08T10:30:48.767Z,97472.47
2023-01-08T10:33:21.474Z,97473.13
2023-01-08T10:35:55.513Z,97483.91
2023-01-08T10:38:32.203Z,97473.75
2023-01-08T10:41:03.932Z,97481.75
2023-01-08T10:43:35.129Z,97468.25
2023-01-08T10:46:05.206Z,97455.78
2023-01-08T10:48:39.486Z,97447.22
2023-01-08T10:51:15.890Z,97443.78
2023-01-08T10:53:43.409Z,97431.19
2023-01-08T10:56:20.211Z,97436.66
2023-01-08T10:58:48.212Z,97437.41
2023-01-08T11:01:19.534Z,97422.84
2023-01-08T11:03:52.733Z,97422.06
2023-01-08T11:06:23.809Z,97393.78
2023-01-08T11:08:52.647Z,97395.94
2023-01-08T11:11:20.334Z,97407.25
2023-01-08T11:13:59.106Z,97399.06
2023-01-08T11:16:35.367Z,97387.84
2023-01-08T11:19:06.210Z,97400.16
2023-01-08T11:21:34.434Z,97397.97
2023-01-08T11:24:10.746Z,97371.22
2023-01-08T11:26:43.647Z,97375.84
2023-01-08T11:29:18.513Z,97355.41
2023-01-08T11:31:54.869Z,97367.69
2023-01-08T11:34:29.539Z,97345.31
2023-01-08T11:37:05.130Z,97351.84
2023-01-08T11:39:35.472Z,97333.03
2023-01-08T11:42:32.075Z,97316.91
2023-01-08T11:45:13.948Z,97309.38
2023-01-08T11:48:00.301Z,97304.78
2023-01-08T11:50:35.959Z,97316.69
2023-01-08T11:53:15.643Z,97306.81
2023-01-08T11:55:53.409Z,97312.84
2023-01-08T11:58:28.569Z,97301.38
2023-01-08T12:01:07.944Z,97306.50
2023-01-08T12:03:40.766Z,97307.94
2023-01-08T12:06:28.336Z,97291.88
2023-01-08T12:09:07.418Z,97304.31
2023-01-08T12:11:44.208Z,97289.09
2023-01-08T12:14:34.098Z,97323.75
2023-01-08T12:17:18.937Z,97304.81
2023-01-08T12:20:07.468Z,97313.78
2023-01-08T12:22:45.173Z,97301.28
2023-01-08T12:25:38.225Z,97295.47
2023-01-08T12:28:29.016Z,97308.03
2023-01-08T12:31:16.085Z,97302.28
2023-01-08T12:33:48.876Z,97301.09
2023-01-08T12:36:22.341Z,97294.25
2023-01-08T12:38:59.049Z,97303.97
2023-01-08T12:41:27.059Z,97305.72
2023-01-08T12:43:59.743Z,97296.56
2023-01-08T12:46:31.868Z,97297.44
2023-01-08T12:49:01.190Z,97298.25
2023-01-08T12:51:35.809Z,97300.38
2023-01-08T12:54:11.529Z,97306.66
2023-01-08T12:56:46.714Z,97311.59
2023-01-08T12:59:29.611Z,97319.22
2023-01-08T13:02:03.104Z,97302.94
2023-01-08T13:04:39.912Z,97310.31
2023-01-08T13:07:12.015Z,97308.84
2023-01-08T13:09:40.952Z,97299.44
2023-01-08T13:12:13.414Z,97303.56
2023-01-08T13:14:42.663Z,97303.84
2023-01-08T13:17:18.520Z,97309.41
2023-01-08T13:19:53.120Z,97309.75
2023-01-08T13:22:26.399Z,97297.03
2023-01-08T13:25:09.241Z,97305.63
2023-01-08T13:27:36.128Z,97308.88
2023-01-08T13:30:03.020Z,97306.66
2023-01-08T13:32:43.991Z,97308.75
2023-01-08T13:35:23.700Z,97309.53
2023-01-08T13:37:53.053Z,97323.75
2023-01-08T13:40:53.194Z,97317.53
2023-01-08T13:43:24.058Z,97323.44
2023-01-08T13:46:08.149Z,97322.25
2023-01-08T13:48:39.712Z,97318.13
2023-01-08T13:51:25.160Z,97326.34
2023-01-08T13:53:53.357Z,97330.72
2023-01-08T13:56:22.369Z,97327.66
2023-01-08T13:58:54.637Z,97323.50
2023-01-08T14:01:22.896Z,97320.31
2023-01-08T14:03:50.209Z,97320.19
2023-01-08T14:06:20.749Z,97299.50
2023-01-08T14:08:51.981Z,97310.69
2023-01-08T14:11:23.729Z,97321.25
2023-01-08T14:13:52.025Z,97323.41
2023-01-08T14:16:21.013Z,97310.13
2023-01-08T14:18:50.094Z,97306.72
2023-01-08T14:21:22.916Z,97286.09
2023-01-08T14:23:51.816Z,97296.03
2023-01-08T14:26:27.706Z,97300.97
2023-01-08T14:28:55.336Z,97296.66
2023-01-08T14:31:24.910Z,97289.47
2023-01-08T14:33:53.298Z,97291.56
2023-01-08T14:36:21.594Z,97296.28
2023-01-08T14:38:49.617Z,97290.44
2023-01-08T14:41:25.499Z,97294.53
2023-01-08T14:43:54.668Z,97286.81
2023-01-08T14:46:26.622Z,97288.97
2023-01-08T14:48:54.697Z,97281.38
2023-01-08T14:51:23.735Z,97272.69
2023-01-08T14:53:55.170Z,97272.22
2023-01-08T14:56:28.054Z,97276.31
2023-01-08T14:58:57.629Z,97278.00
2023-01-08T15:01:28.049Z,97272.81
2023-01-08T15:04:06.360Z,97289.34
2023-01-08T15:06:33.853Z,97290.16
2023-01-08T15:09:01.175Z,97280.56
2023-01-08T15:11:31.180Z,97291.84
2023-01-08T15:14:00.211Z,97290.41
2023-01-08T15:16:31.094Z,97291.31
2023-01-08T15:19:04.579Z,97289.03
2023-01-08T15:21:32.642Z,97300.09
2023-01-08T15:24:01.298Z,97304.38
2023-01-08T15:26:28.791Z,97298.44
2023-01-08T15:28:58.348Z,97307.28
2023-01-08T15:31:31.979Z,97306.03
2023-01-08T15:34:00.855Z,97313.06
2023-01-08T15:36:27.892Z,97307.22
2023-01-08T15:38:55.546Z,97301.31
2023-01-08T15:41:34.852Z,97303.19
2023-01-08T15:44:02.135Z,97312.50
2023-01-08T15:46:30.940Z,97306.47
2023-01-08T15:48:58.530Z,97297.53
2023-01-08T15:51:26.686Z,97304.25
2023-01-08T15:53:54.082Z,97288.16
2023-01-08T15:56:21.475Z,97299.16
2023-01-08T15:58:48.794Z,97301.66
2023-01-08T16:01:16.549Z,97307.84
2023-01-08T16:03:46.046Z,97304.63
2023-01-08T16:06:13.687Z,97318.25
2023-01-08T16:08:41.939Z,97327.22
2023-01-08T16:11:09.427Z,97329.41
2023-01-08T16:13:36.736Z,97322.31
2023-01-08T16:16:08.102Z,97318.78
2023-01-08T16:18:36.157Z,97314.41
2023-01-08T16:21:05.588Z,97321.25
2023-01-08T16:23:34.189Z,97317.97
2023-01-08T16:26:05.632Z,97317.69
2023-01-08T16:28:32.560Z,97312.75
2023-01-08T16:31:00.120Z,97310.91
2023-01-08T16:33:27.382Z,97297.31
2023-01-08T16:35:57.633Z,97301.38
2023-01-08T16:38:26.434Z,97297.03
2023-01-08T16:40:54.134Z,97282.59
2023-01-08T16:43:21.501Z,97293.78
2023-01-08T16:45:49.466Z,97299.50
2023-01-08T16:48:18.112Z,97300.88
2023-01-08T16:50:45.739Z,97297.56
2023-01-08T16:53:13.504Z,97308.78
2023-01-08T16:55:42.629Z,97295.88
2023-01-08T16:58:10.332Z,97299.72
2023-01-08T17:00:38.562Z,97303.75
2023-01-08T17:03:06.801Z,97302.47
2023-01-08T17:05:36.784Z,97301.97
2023-01-08T17:08:04.391Z,97303.28
2023-01-08T17:10:32.034Z,97304.13
2023-01-08T17:13:00.240Z,97305.03
2023-01-08T17:15:27.600Z,97311.22
2023-01-08T17:17:55.417Z,97307.22
2023-01-08T17:20:22.670Z,97315.69
2023-01-08T17:22:49.402Z,97306.97
2023-01-08T17:25:17.539Z,97298.03
2023-01-08T17:27:45.107Z,97294.75
2023-01-08T17:30:14.185Z,97293.97
2023-01-08T17:32:42.108Z,97293.97
2023-01-08T17:35:09.228Z,97290.72
2023-01-08T17:37:37.092Z,97297.25
2023-01-08T17:40:05.035Z,97295.88
2023-01-08T17:42:32.266Z,97291.78
2023-01-08T17:45:00.973Z,97287.44
2023-01-08T17:47:31.076Z,97290.69
2023-01-08T17:49:58.820Z,97290.44
2023-01-08T17:52:26.196Z,97278.19
2023-01-08T17:54:53.736Z,97286.66
2023-01-08T17:57:21.669Z,97286.34
2023-01-08T17:59:49.676Z,97283.63
2023-01-08T18:02:18.947Z,97293.69
2023-01-08T18:04:47.732Z,97284.66
2023-01-08T18:07:15.340Z,97288.78
2023-01-08T18:09:43.272Z,97281.69
2023-01-08T18:12:10.023Z,97295.78
2023-01-08T18:14:37.612Z,97293.88
2023-01-08T18:17:05.297Z,97293.88
2023-01-08T18:19:32.506Z,97296.66
2023-01-08T18:22:01.896Z,97296.63
2023-01-08T18:24:29.184Z,97288.94
2023-01-08T18:26:57.124Z,97285.91
2023-01-08T18:29:24.499Z,97280.31
2023-01-08T18:31:52.400Z,97288.88
2023-01-08T18:34:20.046Z,97283.94
2023-01-08T18:36:47.321Z,97280.19
2023-01-08T18:39:16.361Z,97275.91
2023-01-08T18:41:43.632Z,97279.44
2023-01-08T18:44:11.437Z,97268.56
2023-01-08T18:46:40.260Z,97270.44
2023-01-08T18:49:07.807Z,97276.47
2023-01-08T18:51:35.468Z,97282.94
2023-01-08T18:54:02.258Z,97286.22
2023-01-08T18:56:32.372Z,97271.84
2023-01-08T18:58:59.618Z,97272.00
2023-01-08T19:01:27.444Z,97271.22
2023-01-08T19:03:57.108Z,97273.88
2023-01-08T19:06:24.951Z,97271.22
2023-01-08T19:08:52.553Z,97279.28
2023-01-08T19:11:20.018Z,97280.66
2023-01-08T19:13:48.261Z,97292.41
2023-01-08T19:16:15.706Z,97294.75
2023-01-08T19:18:44.854Z,97292.84
2023-01-08T19:21:13.593Z,97300.94
2023-01-08T19:23:41.281Z,97301.50
2023-01-08T19:26:08.838Z,97299.97
2023-01-08T19:28:36.718Z,97289.22
2023-01-08T19:31:06.094Z,97296.16
2023-01-08T19:33:32.840Z,97303.63
2023-01-08T19:36:01.823Z,97301.16
2023-01-08T19:38:28.841Z,97297.06
2023-01-08T19:40:58.333Z,97297.56
2023-01-08T19:43:25.752Z,97292.16
2023-01-08T19:45:52.552Z,97290.25
2023-01-08T19:48:21.210Z,97295.66
2023-01-08T19:50:48.485Z,97293.94
2023-01-08T19:53:16.179Z,97290.41
2023-01-08T19:55:43.776Z,97294.25
2023-01-08T19:58:11.186Z,97305.34
2023-01-08T20:00:38.579Z,97295.69
2023-01-08T20:03:05.648Z,97302.06
2023-01-08T20:05:33.814Z,97293.69
2023-01-08T20:08:00.645Z,97301.84
2023-01-08T20:10:28.070Z,97301.97
2023-01-08T20:12:55.488Z,97312.84
2023-01-08T20:15:22.905Z,97315.53
2023-01-08T20:17:50.275Z,97330.59
2023-01-08T20:20:17.045Z,97318.00
2023-01-08T20:22:45.783Z,97328.94
2023-01-08T20:25:13.108Z,97335.97
2023-01-08T20:27:40.448Z,97337.56
2023-01-08T20:30:11.917Z,97335.00
2023-01-08T20:32:39.121Z,97337.47
2023-01-08T20:35:07.532Z,97340.19
2023-01-08T20:37:35.013Z,97339.88
2023-01-08T20:40:04.132Z,97340.09
2023-01-08T20:42:34.605Z,97344.16
2023-01-08T20:45:02.547Z,97337.06
2023-01-08T20:47:29.699Z,97344.97
2023-01-08T20:49:56.985Z,97347.25
2023-01-08T20:52:23.790Z,97351.63
2023-01-08T20:54:51.028Z,97354.69
2023-01-08T20:57:19.872Z,97353.91
2023-01-08T20:59:47.593Z,97360.50
2023-01-08T21:02:14.944Z,97352.50
2023-01-08T21:04:42.632Z,97342.81
2023-01-08T21:07:09.982Z,97343.66
2023-01-08T21:09:39.046Z,97342.56
2023-01-08T21:12:07.520Z,97344.53
2023-01-08T21:14:36.661Z,97337.91
2023-01-08T21:17:03.881Z,97346.56
2023-01-08T21:19:31.217Z,97355.03
2023-01-08T21:21:58.570Z,97362.84
2023-01-08T21:24:26.045Z,97369.09
2023-01-08T21:26:53.520Z,97360.84
2023-01-08T21:29:21.218Z,97373.47
2023-01-08T21:31:49.933Z,97376.41
2023-01-08T21:34:17.308Z,97375.22
2023-01-08T21:36:44.990Z,97370.28
2023-01-08T21:39:12.221Z,97367.94
2023-01-08T21:41:39.620Z,97377.22
2023-01-08T21:44:12.336Z,97371.28
2023-01-08T21:46:39.739Z,97368.09
2023-01-08T21:49:08.464Z,97371.00
2023-01-08T21:51:35.946Z,97367.16
2023-01-08T21:54:03.661Z,97364.84
2023-01-08T21:56:31.172Z,97373.06
2023-01-08T21:58:58.739Z,97373.38
2023-01-08T22:01:26.492Z,97371.00
2023-01-08T22:03:53.911Z,97369.88
2023-01-08T22:06:23.563Z,97373.25
2023-01-08T22:08:52.709Z,97377.50
2023-01-08T22:11:20.249Z,97379.03
2023-01-08T22:13:48.230Z,97385.78
2023-01-08T22:16:15.711Z,97399.16
2023-01-08T22:18:43.181Z,97391.41
2023-01-08T22:21:12.968Z,97389.28
2023-01-08T22:23:41.810Z,97387.03
2023-01-08T22:26:11.244Z,97378.50
2023-01-08T22:28:39.354Z,97380.09
2023-01-08T22:31:07.597Z,97387.59
2023-01-08T22:33:34.980Z,97387.13
2023-01-08T22:36:02.969Z,97383.28
2023-01-08T22:38:30.380Z,97386.09
2023-01-08T22:40:58.643Z,97391.53
2023-01-08T22:43:26.430Z,97391.16
2023-01-08T22:45:54.044Z,97412.84
2023-01-08T22:48:22.298Z,97414.28
2023-01-08T22:50:49.856Z,97418.91
2023-01-08T22:53:17.339Z,97420.66
2023-01-08T22:55:46.171Z,97413.81
2023-01-08T22:58:16.386Z,97417.44
2023-01-08T23:00:44.439Z,97420.78
2023-01-08T23:03:12.115Z,97420.50
2023-01-08T23:05:40.563Z,97416.28
2023-01-08T23:08:08.481Z,97417.91
2023-01-08T23:10:36.453Z,97429.03
2023-01-08T23:13:03.964Z,97428.06
2023-01-08T23:15:32.701Z,97436.03
2023-01-08T23:17:59.954Z,97446.09
2023-01-08T23:20:27.222Z,97442.16
2023-01-08T23:22:54.650Z,97444.31
2023-01-08T23:25:21.925Z,97445.53
2023-01-08T23:27:49.266Z,97448.56
2023-01-08T23:30:16.478Z,97466.09
2023-01-08T23:32:45.061Z,97471.84
2023-01-08T23:35:11.868Z,97481.91
2023-01-08T23:37:39.113Z,97477.41
2023-01-08T23:40:07.391Z,97489.59
2023-01-08T23:42:34.862Z,97490.56
2023-01-08T23:45:02.276Z,97488.63
2023-01-08T23:47:29.596Z,97484.88
2023-01-08T23:49:57.811Z,97492.88
2023-01-08T23:52:24.942Z,97488.75
2023-01-08T23:54:52.535Z,97488.22
2023-01-08T23:57:19.987Z,97482.69
2023-01-08T23:59:46.743Z,97488.31
